• Join FlightAware (Why Join?)
  • Login
  • US Flag 
05:29AM EST


 

Airport Tracker/Info


-or-


 

Live Flight TrackerFlight Track Log ✈ ASQ4577 ✈ 15-May-2013 ✈ KDFW - KCLE

Flight Track Log - Related Links

Times and Time Zones

All times are in EDT time to prevent confusion due to time zone crossing. See the ASQ4577 flight status page for this flight to view local times or setup timezone preferences in your user account.

Time Position Orientation Groundspeed Altitude Reporting Facility
EDT Latitude Longitude Course Direction KTS MPH feet Rate Location/Type
04:12PM 32.8333 -97.0167 164° South 204 235 3,200  Level Dallas / Fort Worth TRACON
04:13PM 32.8000 -96.9667 128° Southeast 271 312 4,900 1,740 Climbing Dallas / Fort Worth TRACON
04:14PM 32.8000 -96.8833 90° East 279 321 6,600 1,980 Climbing Dallas / Fort Worth TRACON
04:15PM 32.8000 -96.7833 90° East 290 334 8,700 1,440 Climbing Dallas / Fort Worth TRACON
04:17PM 32.7931 -96.5881 92° East 331 381 10,800 1,200 Climbing Fort Worth Center
04:18PM 32.7922 -96.4669 90° East 353 406 12,300 1,800 Climbing Fort Worth Center
04:19PM 32.8081 -96.3506 81° East 365 420 14,400 1,980 Climbing Fort Worth Center
04:20PM 32.8636 -96.2486 57° Northeast 351 404 16,300 1,800 Climbing Fort Worth Center
04:21PM 32.9147 -96.1464 59° Northeast 356 410 18,000 1,500 Climbing Fort Worth Center
04:22PM 32.9636 -96.0367 62° Northeast 356 410 19,400 1,380 Climbing Fort Worth Center
04:23PM 33.0147 -95.9319 60° Northeast 356 410 20,800 1,200 Climbing Fort Worth Center
04:24PM 33.0656 -95.8194 62° Northeast 366 421 21,900 1,260 Climbing Fort Worth Center
04:25PM 33.1203 -95.7069 60° Northeast 379 436 23,400 1,380 Climbing Fort Worth Center
04:26PM 33.1708 -95.5894 63° Northeast 385 443 24,700 900 Climbing Fort Worth Center
04:27PM 33.2233 -95.4739 61° Northeast 390 449 25,300 900 Climbing Fort Worth Center
04:28PM 33.2800 -95.3511 61° Northeast 396 456 26,500 1,080 Climbing Fort Worth Center
04:29PM 33.3342 -95.2331 61° Northeast 402 463 27,500 900 Climbing Fort Worth Center
04:30PM 33.3906 -95.1122 61° Northeast 402 463 28,400 900 Climbing Fort Worth Center
04:31PM 33.4486 -94.9861 61° Northeast 407 468 29,400 960 Climbing Fort Worth Center
04:32PM 33.5067 -94.8600 61° Northeast 421 484 30,400 960 Climbing Fort Worth Center
04:33PM 33.5625 -94.7361 62° Northeast 421 484 31,400 960 Climbing Fort Worth Center
04:34PM 33.6244 -94.6072 60° Northeast 427 491 32,400 900 Climbing Fort Worth Center
04:35PM 33.6819 -94.4781 62° Northeast 427 491 33,300 900 Climbing Fort Worth Center
04:36PM 33.7394 -94.3486 62° Northeast 427 491 34,300 840 Climbing Fort Worth Center
04:37PM 33.7931 -94.2344 61° Northeast 433 498 35,000 720 Climbing Fort Worth Center
04:38PM 33.8500 -94.1022 63° Northeast 433 498 35,800 660 Climbing Fort Worth Center
04:40PM 33.9633 -93.8508 61° Northeast 449 517 37,000 360 Climbing Memphis Center
04:41PM 34.0211 -93.7178 62° Northeast 449 517 37,000  Level Memphis Center
04:42PM 34.0792 -93.5797 63° Northeast 449 517 37,000  Level Memphis Center
04:43PM 34.1411 -93.4339 63° Northeast 457 526 37,000  Level Memphis Center
04:44PM 34.2072 -93.2881 61° Northeast 474 545 37,000  Level Memphis Center
04:45PM 34.2733 -93.1369 62° Northeast 488 562 37,000  Level Memphis Center
04:46PM 34.3419 -92.9606 65° Northeast 512 589 37,000  Level Memphis Center
04:47PM 34.4094 -92.8117 61° Northeast 512 589 37,000  Level Memphis Center
04:48PM 34.4772 -92.6525 63° Northeast 512 589 37,000  Level Memphis Center
04:49PM 34.5425 -92.4953 63° Northeast 518 596 37,000  Level Memphis Center
04:50PM 34.6078 -92.3381 63° Northeast 513 590 37,000  Level Memphis Center
04:51PM 34.6747 -92.1906 61° Northeast 506 582 37,000  Level Memphis Center
04:52PM 34.7683 -92.0636 48° Northeast 496 571 37,000  Level Memphis Center
04:53PM 34.8639 -91.9389 47° Northeast 496 571 37,000  Level Memphis Center
04:54PM 34.9592 -91.8167 46° Northeast 496 571 37,000  Level Memphis Center
04:55PM 35.0544 -91.6939 47° Northeast 496 571 37,000  Level Memphis Center
04:56PM 35.1517 -91.5711 46° Northeast 491 565 37,000  Level Memphis Center
04:57PM 35.2467 -91.4478 47° Northeast 491 565 37,000  Level Memphis Center
04:58PM 35.3394 -91.3269 47° Northeast 491 565 37,000  Level Memphis Center
04:59PM 35.4322 -91.2081 46° Northeast 491 565 37,000  Level Memphis Center
05:00PM 35.5225 -91.0814 49° Northeast 485 558 37,000  Level Memphis Center
05:01PM 35.6025 -90.9494 53° Northeast 485 558 37,000  Level Memphis Center
05:02PM 35.6844 -90.8119 54° Northeast 490 564 37,000  Level Memphis Center
05:03PM 35.7517 -90.6922 55° Northeast 484 557 37,000  Level Memphis Center
05:04PM 35.8269 -90.5592 55° Northeast 479 551 37,000 -240 Level Memphis Center
05:05PM 35.9083 -90.4236 53° Northeast 479 551 36,600 -660 Descending Memphis Center
05:06PM 35.9897 -90.2853 54° Northeast 484 557 35,700 -840 Descending Memphis Center
05:07PM 36.0708 -90.1517 53° Northeast 489 563 35,000 -360 Descending Memphis Center
05:08PM 36.1478 -90.0178 55° Northeast 489 563 35,000  Level Memphis Center
05:09PM 36.2264 -89.8836 54° Northeast 484 557 35,000  Level Memphis Center
05:10PM 36.3072 -89.7492 53° Northeast 484 557 35,000  Level Memphis Center
05:11PM 36.3878 -89.6119 54° Northeast 484 557 35,000  Level Memphis Center
05:12PM 36.4786 -89.4667 52° Northeast 484 557 35,000  Level Memphis Center
05:13PM 36.5608 -89.3211 55° Northeast 495 570 35,000 300 Level Memphis Center
05:14PM 36.6367 -89.1803 56° Northeast 495 570 35,600 780 Climbing Memphis Center
05:15PM 36.7103 -89.0472 55° Northeast 483 556 36,600 660 Climbing Memphis Center
05:16PM 36.7839 -88.9167 55° Northeast 470 541 37,000 180 Climbing Memphis Center
05:17PM 36.8614 -88.7803 55° Northeast 470 541 37,000  Level Memphis Center
05:18PM 36.9367 -88.6517 54° Northeast 470 541 37,000  Level Memphis Center
05:19PM 37.0139 -88.5097 56° Northeast 475 547 37,000  Level Memphis Center
05:21PM 37.1464 -88.2631 56° Northeast 499 574 37,000  Level Indianapolis Center
05:22PM 37.2267 -88.1172 55° Northeast 502 578 37,000  Level Indianapolis Center
05:23PM 37.3025 -87.9808 55° Northeast 479 551 37,000  Level Indianapolis Center
05:24PM 37.3750 -87.8486 55° Northeast 458 527 37,000  Level Indianapolis Center
05:25PM 37.4475 -87.7147 56° Northeast 458 527 37,000  Level Indianapolis Center
05:26PM 37.5239 -87.5847 53° Northeast 458 527 37,000  Level Indianapolis Center
05:27PM 37.6028 -87.4597 51° Northeast 453 521 37,000  Level Indianapolis Center
05:28PM 37.6950 -87.3144 51° Northeast 450 518 37,000  Level Indianapolis Center
05:29PM 37.7694 -87.1972 51° Northeast 454 522 37,000  Level Indianapolis Center
05:30PM 37.8475 -87.0731 51° Northeast 453 521 37,000  Level Indianapolis Center
05:31PM 37.9250 -86.9492 52° Northeast 451 519 37,000  Level Indianapolis Center
05:32PM 38.0178 -86.7994 52° Northeast 453 521 37,000  Level Indianapolis Center
05:33PM 38.0953 -86.6756 51° Northeast 452 520 37,000  Level Indianapolis Center
05:34PM 38.1717 -86.5500 52° Northeast 452 520 37,000  Level Indianapolis Center
05:35PM 38.2492 -86.4247 52° Northeast 453 521 37,000  Level Indianapolis Center
05:36PM 38.3264 -86.3008 52° Northeast 450 518 37,000  Level Indianapolis Center
05:38PM 38.4031 -86.1736 52° Northeast 451 519 37,000  Level Indianapolis Center
05:39PM 38.4953 -86.0239 52° Northeast 446 513 37,000  Level Indianapolis Center
05:40PM 38.5728 -85.8983 52° Northeast 449 517 37,000  Level Indianapolis Center
05:41PM 38.6522 -85.7650 53° Northeast 444 511 37,000  Level Indianapolis Center
05:42PM 38.7261 -85.6414 53° Northeast 442 509 37,000  Level Indianapolis Center
05:43PM 38.8003 -85.5178 52° Northeast 439 505 37,000  Level Indianapolis Center
05:44PM 38.8733 -85.3944 53° Northeast 437 503 37,000  Level Indianapolis Center
05:45PM 38.9444 -85.2683 54° Northeast 438 504 37,000  Level Indianapolis Center
05:46PM 39.0003 -85.0947 67° East 442 509 37,000  Level Indianapolis Center
05:47PM 39.0492 -84.9511 66° East 440 506 37,000  Level Indianapolis Center
05:48PM 39.0947 -84.8103 67° East 439 505 37,000 -180 Level Indianapolis Center
05:49PM 39.1489 -84.6697 64° Northeast 435 501 36,700 -660 Descending Indianapolis Center
05:50PM 39.2158 -84.5411 56° Northeast 430 495 35,700 -1,320 Descending Indianapolis Center
05:51PM 39.3156 -84.4131 45° Northeast 431 496 34,000 -1,560 Descending Indianapolis Center
05:52PM 39.4081 -84.3103 41° Northeast 434 499 32,500 -1,500 Descending Indianapolis Center
05:53PM 39.5017 -84.2058 41° Northeast 439 505 31,000 -1,500 Descending Indianapolis Center
05:54PM 39.5956 -84.1008 41° Northeast 441 507 29,400 -1,140 Descending Indianapolis Center
05:55PM 39.6897 -83.9947 41° Northeast 442 509 28,700 -1,020 Descending Indianapolis Center
05:56PM 39.7864 -83.8908 40° Northeast 442 509 27,300 -1,380 Descending Indianapolis Center
05:57PM 39.8842 -83.7869 39° Northeast 446 513 25,900 -1,380 Descending Indianapolis Center
05:58PM 39.9822 -83.6822 39° Northeast 446 513 24,500 -1,020 Descending Indianapolis Center
05:59PM 40.0789 -83.5761 40° Northeast 445 512 23,900 -780 Descending Indianapolis Center
06:00PM 40.1756 -83.4717 40° Northeast 443 510 22,900 -1,020 Descending Indianapolis Center
06:01PM 40.2872 -83.3394 42° Northeast 457 526 21,800 -1,020 Descending Indianapolis Center
06:02PM 40.3764 -83.2244 44° Northeast 451 519 20,800 -1,020 Descending Indianapolis Center
06:03PM 40.4631 -83.1142 44° Northeast 437 503 19,800 -1,440 Descending Indianapolis Center
06:04PM 40.5469 -83.0056 45° Northeast 423 487 17,900 -2,160 Descending Indianapolis Center
06:05PM 40.6331 -82.8967 44° Northeast 425 489 15,400 -2,640 Descending Indianapolis Center
06:06PM 40.6742 -82.8417 45° Northeast 420 483 14,100 -2,700 Descending Cleveland Center
06:07PM 40.7492 -82.7456 44° Northeast 394 453 11,600 -1,560 Descending Cleveland Center
06:08PM 40.8217 -82.6492 45° Northeast 368 423 11,000 -300 Descending Cleveland Center
06:09PM 40.9028 -82.5500 43° Northeast 380 437 11,000 -180 Level Cleveland Center
06:09PM 40.9392 -82.4961 48° Northeast 405 466 10,800 -540 Descending Cleveland Center
06:10PM 40.9669 -82.4586 46° Northeast 380 437 10,500 -720 Descending Cleveland Center
06:10PM 41.0117 -82.4019 44° Northeast 363 418 10,100 -540 Descending Cleveland Center
06:11PM 41.0392 -82.3669 44° Northeast 366 421 10,000  Descending Cleveland Center
06:11PM 41.0817 -82.3103 45° Northeast 359 413 10,100  Climbing Cleveland Center
06:12PM 41.1075 -82.2669 52° Northeast 359 413 10,000  Descending Cleveland Center
06:12PM 41.1542 -82.2128 41° Northeast 366 421 10,100 60 Climbing Cleveland Center
06:13PM 41.1881 -82.1669 45° Northeast 354 407 10,100 -300 Level Cleveland Center
06:13PM 41.2264 -82.1181 44° Northeast 335 386 9,800 -600 Descending Cleveland Center
06:14PM 41.2456 -82.0881 50° Northeast 342 394 9,500 -1,320 Descending Cleveland Center
06:14PM 41.2836 -82.0367 45° Northeast 282 325 8,500 -1,320 Descending Cleveland Center
06:15PM 41.3028 -82.0122 44° Northeast 312 359 8,200 -1,140 Descending Cleveland Center
06:15PM 41.3181 -81.9489 72° East 284 327 7,400 -1,140 Descending Cleveland Center
06:16PM 41.3269 -81.9131 72° East 274 315 7,100 -480 Descending Cleveland Center
06:16PM 41.3378 -81.8636 74° East 262 302 7,000  Descending Cleveland Center
06:17PM 41.3444 -81.8250 77° East 262 302 7,100 60 Climbing Cleveland Center
06:17PM 41.3594 -81.7839 64° Northeast 236 272 7,100 -120 Level Cleveland Center
06:18PM 41.3786 -81.7536 50° Northeast 239 275 7,000  Descending Cleveland Center
06:18PM 41.4061 -81.7208 42° Northeast 236 272 7,100 -120 Climbing Cleveland Center
06:20PM 41.4567 -81.6469 48° Northeast 245 282 6,900 -660 Descending Cleveland Center
06:20PM 41.4992 -81.5867 47° Northeast 237 273 5,800 -1,020 Descending Cleveland Center
06:21PM 41.5431 -81.5542 29° Northeast 201 231 5,000 -780 Descending Cleveland Center
06:22PM 41.5425 -81.6122 269° West 164 189 4,300 -540 Descending Cleveland Center
06:23PM 41.5294 -81.6706 253° West 168 193 4,000 -540 Descending Cleveland Center
06:24PM 41.5000 -81.7169 230° Southwest 186 214 3,300 -780 Descending Cleveland Center